createdAt,value
2022-08-23T00:00:12.008Z,25.55
2022-08-23T00:01:07.448Z,25.55
2022-08-23T00:02:06.955Z,25.49
2022-08-23T00:03:06.962Z,25.5
2022-08-23T00:04:07.401Z,25.47
2022-08-23T00:05:09.742Z,25.45
2022-08-23T00:06:07.459Z,25.44
2022-08-23T00:07:07.487Z,25.38
2022-08-23T00:08:07.322Z,25.36
2022-08-23T00:09:07.498Z,25.31
2022-08-23T00:10:07.536Z,25.27
2022-08-23T00:11:07.524Z,25.22
2022-08-23T00:12:07.557Z,25.15
2022-08-23T00:13:07.117Z,25.10
2022-08-23T00:14:07.510Z,25.05
2022-08-23T00:15:08.026Z,25.03
2022-08-23T00:16:07.236Z,24.97
2022-08-23T00:17:07.622Z,24.95
2022-08-23T00:18:07.097Z,24.95
2022-08-23T00:19:07.148Z,24.90
2022-08-23T00:20:07.341Z,24.91
2022-08-23T00:21:07.315Z,24.88
2022-08-23T00:22:07.411Z,24.90
2022-08-23T00:23:07.238Z,24.87
2022-08-23T00:24:07.548Z,24.87
2022-08-23T00:25:07.072Z,24.86
2022-08-23T00:26:07.318Z,24.86
2022-08-23T00:27:07.280Z,24.84
2022-08-23T00:28:12.520Z,24.83
2022-08-23T00:29:06.977Z,24.81
2022-08-23T00:30:07.583Z,24.79
2022-08-23T00:31:07.459Z,24.79
2022-08-23T00:32:07.631Z,24.80
2022-08-23T00:33:07.150Z,24.78
2022-08-23T00:34:07.212Z,24.78
2022-08-23T00:35:07.524Z,24.77
2022-08-23T00:36:07.817Z,24.78
2022-08-23T00:37:07.050Z,24.76
2022-08-23T00:38:31.940Z,24.73
2022-08-23T00:39:07.617Z,24.70
2022-08-23T00:40:07.196Z,24.69
2022-08-23T00:41:07.590Z,24.68
2022-08-23T00:42:07.004Z,24.69
2022-08-23T00:43:07.053Z,24.72
2022-08-23T00:44:07.163Z,24.71
2022-08-23T00:45:07.631Z,24.73
2022-08-23T00:46:06.965Z,24.75
2022-08-23T00:47:07.350Z,24.77
2022-08-23T00:48:07.481Z,24.77
2022-08-23T00:49:07.562Z,24.79
2022-08-23T00:50:23.402Z,24.78
2022-08-23T00:51:07.306Z,24.80
2022-08-23T00:52:07.506Z,24.79
2022-08-23T00:53:07.583Z,24.80
2022-08-23T00:54:06.982Z,24.83
2022-08-23T00:55:07.034Z,24.82
2022-08-23T00:56:07.064Z,24.84
2022-08-23T00:57:07.385Z,24.84
2022-08-23T00:58:07.282Z,24.83
2022-08-23T00:59:07.344Z,24.81
2022-08-23T01:00:08.319Z,24.81
2022-08-23T01:01:07.526Z,24.79
2022-08-23T01:02:07.714Z,24.79
2022-08-23T01:03:07.321Z,24.79
2022-08-23T01:04:07.395Z,24.77
2022-08-23T01:05:07.614Z,24.77
2022-08-23T01:06:06.986Z,24.77
2022-08-23T01:07:07.077Z,24.76
2022-08-23T01:08:06.996Z,24.76
2022-08-23T01:09:07.435Z,24.75
2022-08-23T01:10:07.761Z,24.75
2022-08-23T01:11:08.667Z,24.78
2022-08-23T01:12:07.057Z,24.75
2022-08-23T01:13:07.205Z,24.75
2022-08-23T01:14:07.607Z,24.75
2022-08-23T01:15:08.015Z,24.73
2022-08-23T01:16:07.447Z,24.73
2022-08-23T01:17:07.847Z,24.72
2022-08-23T01:18:07.309Z,24.72
2022-08-23T01:19:07.292Z,24.71
2022-08-23T01:20:07.451Z,24.71
2022-08-23T01:21:10.349Z,24.72
2022-08-23T01:22:07.105Z,24.71
2022-08-23T01:23:07.043Z,24.70
2022-08-23T01:24:07.198Z,24.69
2022-08-23T01:25:08.919Z,24.69
2022-08-23T01:26:07.475Z,24.69
2022-08-23T01:27:07.433Z,24.66
2022-08-23T01:28:07.427Z,24.68
2022-08-23T01:29:07.321Z,24.69
2022-08-23T01:30:07.641Z,24.67
2022-08-23T01:31:06.928Z,24.63
2022-08-23T01:32:07.191Z,24.65
2022-08-23T01:33:07.284Z,24.66
2022-08-23T01:34:07.193Z,24.65
2022-08-23T01:35:07.475Z,24.64
2022-08-23T01:36:09.868Z,24.62
2022-08-23T01:37:07.426Z,24.59
2022-08-23T01:38:07.514Z,24.56
2022-08-23T01:39:07.692Z,24.56
2022-08-23T01:40:07.309Z,24.53
2022-08-23T01:41:07.547Z,24.46
2022-08-23T01:42:07.858Z,24.42
2022-08-23T01:43:07.352Z,24.39
2022-08-23T01:44:07.355Z,24.34
2022-08-23T01:45:07.938Z,24.31
2022-08-23T01:46:07.220Z,24.29
2022-08-23T01:47:07.375Z,24.25
2022-08-23T01:48:07.380Z,24.23
2022-08-23T01:49:08.476Z,24.23
2022-08-23T01:50:07.784Z,24.21
2022-08-23T01:51:07.013Z,24.21
2022-08-23T01:52:07.410Z,24.22
2022-08-23T01:53:07.355Z,24.22
2022-08-23T01:54:07.464Z,24.19
2022-08-23T01:55:07.697Z,24.20
2022-08-23T01:56:07.313Z,24.20
2022-08-23T01:57:07.395Z,24.20
2022-08-23T01:58:07.317Z,24.20
2022-08-23T01:59:07.201Z,24.20
2022-08-23T02:00:08.147Z,24.20
2022-08-23T02:01:07.428Z,24.19
2022-08-23T02:02:07.658Z,24.20
2022-08-23T02:03:06.975Z,24.17
2022-08-23T02:04:07.079Z,24.13
2022-08-23T02:05:07.471Z,24.14
2022-08-23T02:06:07.847Z,24.14
2022-08-23T02:07:07.080Z,24.14
2022-08-23T02:08:07.421Z,24.13
2022-08-23T02:09:17.967Z,24.14
2022-08-23T02:10:07.290Z,24.14
2022-08-23T02:11:07.497Z,24.11
2022-08-23T02:12:07.778Z,24.11
2022-08-23T02:13:07.187Z,24.10
2022-08-23T02:14:07.262Z,24.13
2022-08-23T02:15:07.850Z,24.14
2022-08-23T02:16:07.302Z,24.18
2022-08-23T02:17:07.080Z,24.21
2022-08-23T02:18:07.281Z,24.19
2022-08-23T02:19:07.560Z,24.20
2022-08-23T02:20:07.877Z,24.20
2022-08-23T02:22:07.442Z,24.17
2022-08-23T02:23:07.601Z,24.17
2022-08-23T02:24:07.577Z,24.18
2022-08-23T02:25:07.042Z,24.17
2022-08-23T02:26:07.112Z,24.15
2022-08-23T02:27:07.174Z,24.12
2022-08-23T02:28:07.280Z,24.12
2022-08-23T02:29:07.427Z,24.11
2022-08-23T02:30:08.090Z,24.10
2022-08-23T02:31:07.070Z,24.07
2022-08-23T02:32:07.688Z,24.05
2022-08-23T02:33:06.997Z,24.04
2022-08-23T02:34:07.193Z,24.05
2022-08-23T02:35:07.229Z,24.04
2022-08-23T02:36:07.176Z,24.04
2022-08-23T02:37:07.128Z,24.05
2022-08-23T02:38:07.547Z,24.04
2022-08-23T02:39:07.533Z,24.04
2022-08-23T02:40:07.184Z,24.04
2022-08-23T02:41:07.558Z,24.01
2022-08-23T02:42:07.560Z,24.00
2022-08-23T02:43:07.344Z,24
2022-08-23T02:44:07.551Z,24
2022-08-23T02:45:07.414Z,23.99
2022-08-23T02:46:07.267Z,23.95
2022-08-23T02:47:07.581Z,23.94
2022-08-23T02:48:07.772Z,23.94
2022-08-23T02:49:07.252Z,23.94
2022-08-23T02:50:07.658Z,23.94
2022-08-23T02:51:07.164Z,23.92
2022-08-23T02:52:07.090Z,23.93
2022-08-23T02:53:07.408Z,23.89
2022-08-23T02:54:07.551Z,23.88
2022-08-23T02:55:07.265Z,23.87
2022-08-23T02:56:17.034Z,23.87
2022-08-23T02:57:07.169Z,23.85
2022-08-23T02:58:07.116Z,23.81
2022-08-23T02:59:07.335Z,23.79
2022-08-23T03:00:08.311Z,23.76
2022-08-23T03:01:07.268Z,23.68
2022-08-23T03:02:07.385Z,23.64
2022-08-23T03:03:07.608Z,23.57
2022-08-23T03:04:07.027Z,23.54
2022-08-23T03:05:07.296Z,23.49
2022-08-23T03:06:25.524Z,23.44
2022-08-23T03:07:07.392Z,23.40
2022-08-23T03:08:07.393Z,23.37
2022-08-23T03:09:07.799Z,23.34
2022-08-23T03:10:06.921Z,23.31
2022-08-23T03:11:09.762Z,23.28
2022-08-23T03:12:07.354Z,23.25
2022-08-23T03:13:07.486Z,23.23
2022-08-23T03:14:07.382Z,23.20
2022-08-23T03:15:07.494Z,23.17
2022-08-23T03:16:06.787Z,23.17
2022-08-23T03:17:07.107Z,23.13
2022-08-23T03:18:06.944Z,23.10
2022-08-23T03:19:06.997Z,23.08
2022-08-23T03:20:07.162Z,23.05
2022-08-23T03:21:07.258Z,23.01
2022-08-23T03:22:07.445Z,23
2022-08-23T03:23:07.555Z,22.99
2022-08-23T03:24:10.332Z,22.95
2022-08-23T03:25:07.411Z,22.89
2022-08-23T03:26:07.619Z,22.86
2022-08-23T03:27:07.647Z,22.81
2022-08-23T03:28:07.145Z,22.76
2022-08-23T03:29:07.386Z,22.73
2022-08-23T03:30:09.503Z,22.68
2022-08-23T03:31:07.241Z,22.61
2022-08-23T03:32:07.336Z,22.55
2022-08-23T03:33:07.073Z,22.51
2022-08-23T03:34:07.035Z,22.48
2022-08-23T03:35:14.366Z,22.44
2022-08-23T03:36:07.523Z,22.37
2022-08-23T03:37:07.596Z,22.37
2022-08-23T03:38:07.135Z,22.35
2022-08-23T03:39:07.388Z,22.33
2022-08-23T03:40:07.694Z,22.31
2022-08-23T03:41:07.128Z,22.29
2022-08-23T03:42:07.819Z,22.28
2022-08-23T03:43:07.416Z,22.26
2022-08-23T03:44:07.618Z,22.26
2022-08-23T03:45:08.153Z,22.26
2022-08-23T03:46:07.345Z,22.25
2022-08-23T03:47:07.612Z,22.26
2022-08-23T03:48:07.163Z,22.28
2022-08-23T03:49:07.062Z,22.28
2022-08-23T03:50:07.151Z,22.29
2022-08-23T03:51:07.431Z,22.30
2022-08-23T03:52:07.523Z,22.31
2022-08-23T03:53:06.880Z,22.30
2022-08-23T03:54:07.424Z,22.29
2022-08-23T03:55:07.462Z,22.30
2022-08-23T03:56:07.519Z,22.31
2022-08-23T03:57:07.910Z,22.31
2022-08-23T03:58:07.316Z,22.31
2022-08-23T03:59:07.662Z,22.33
2022-08-23T04:00:07.832Z,22.35
2022-08-23T04:01:06.995Z,22.33
2022-08-23T04:02:07.478Z,22.36
2022-08-23T04:03:07.508Z,22.36
2022-08-23T04:04:07.724Z,22.35
2022-08-23T04:05:07.005Z,22.37
2022-08-23T04:06:07.119Z,22.37
2022-08-23T04:07:07.320Z,22.37
2022-08-23T04:08:07.328Z,22.38
2022-08-23T04:09:07.420Z,22.39
2022-08-23T04:10:07.661Z,22.37
2022-08-23T04:11:06.662Z,22.37
2022-08-23T04:12:11.992Z,22.38
2022-08-23T04:13:07.418Z,22.36
2022-08-23T04:14:07.355Z,22.38
2022-08-23T04:15:07.712Z,22.38
2022-08-23T04:16:06.722Z,22.38
2022-08-23T04:17:06.763Z,22.37
2022-08-23T04:18:07.098Z,22.37
2022-08-23T04:19:08.776Z,22.34
2022-08-23T04:20:07.176Z,22.33
2022-08-23T04:21:07.214Z,22.31
2022-08-23T04:22:07.153Z,22.30
2022-08-23T04:23:07.140Z,22.31
2022-08-23T04:24:07.297Z,22.31
2022-08-23T04:25:12.320Z,22.31
2022-08-23T04:26:09.845Z,22.31
2022-08-23T04:27:07.079Z,22.30
2022-08-23T04:28:07.604Z,22.30
2022-08-23T04:29:07.169Z,22.30
2022-08-23T04:30:08.354Z,22.31
2022-08-23T04:31:07.614Z,22.30
2022-08-23T04:32:07.797Z,22.29
2022-08-23T04:33:09.997Z,22.30
2022-08-23T04:34:07.465Z,22.27
2022-08-23T04:35:07.125Z,22.26
2022-08-23T04:36:07.301Z,22.19
2022-08-23T04:37:09.564Z,22.15
2022-08-23T04:38:23.929Z,22.12
2022-08-23T04:39:07.355Z,22.06
2022-08-23T04:40:07.518Z,22.03
2022-08-23T04:41:11.267Z,21.98
2022-08-23T04:42:07.095Z,21.96
2022-08-23T04:43:07.525Z,21.94
2022-08-23T04:44:07.129Z,21.94
2022-08-23T04:45:07.417Z,21.92
2022-08-23T04:46:07.781Z,21.88
2022-08-23T04:47:07.138Z,21.83
2022-08-23T04:48:11.706Z,21.82
2022-08-23T04:49:07.304Z,21.81
2022-08-23T04:50:07.392Z,21.81
2022-08-23T04:51:07.624Z,21.83
2022-08-23T04:52:06.836Z,21.86
2022-08-23T04:53:06.683Z,21.87
2022-08-23T04:54:07.635Z,21.88
2022-08-23T04:55:06.900Z,21.91
2022-08-23T04:56:07.187Z,21.92
2022-08-23T04:57:07.302Z,21.94
2022-08-23T04:58:07.577Z,21.95
2022-08-23T04:59:07.106Z,21.94
2022-08-23T05:00:07.650Z,21.97
2022-08-23T05:01:07.282Z,21.97
2022-08-23T05:02:07.079Z,21.98
2022-08-23T05:03:07.240Z,21.96
2022-08-23T05:04:07.348Z,21.97
2022-08-23T05:05:07.840Z,21.95
2022-08-23T05:06:07.157Z,21.95
2022-08-23T05:07:07.461Z,21.95
2022-08-23T05:08:07.025Z,21.98
2022-08-23T05:09:07.434Z,21.98
2022-08-23T05:10:07.667Z,22.00
2022-08-23T05:11:07.029Z,22.02
2022-08-23T05:12:07.182Z,22.03
2022-08-23T05:13:07.471Z,22.04
2022-08-23T05:14:07.606Z,22.04
2022-08-23T05:15:08.004Z,22.06
2022-08-23T05:16:07.318Z,22.08
2022-08-23T05:17:07.676Z,22.10
2022-08-23T05:18:07.479Z,22.11
2022-08-23T05:19:07.655Z,22.14
2022-08-23T05:20:07.042Z,22.15
2022-08-23T05:21:07.272Z,22.15
2022-08-23T05:22:07.465Z,22.18
2022-08-23T05:23:07.275Z,22.18
2022-08-23T05:24:07.619Z,22.21
2022-08-23T05:25:07.137Z,22.20
2022-08-23T05:26:07.366Z,22.20
2022-08-23T05:27:10.629Z,22.24
2022-08-23T05:28:06.762Z,22.26
2022-08-23T05:29:06.963Z,22.31
2022-08-23T05:30:07.531Z,22.32
2022-08-23T05:31:10.428Z,22.35
2022-08-23T05:32:07.035Z,22.37
2022-08-23T05:33:07.387Z,22.40
2022-08-23T05:34:07.510Z,22.42
2022-08-23T05:35:07.918Z,22.42
2022-08-23T05:36:07.184Z,22.43
2022-08-23T05:37:07.247Z,22.44
2022-08-23T05:38:07.418Z,22.45
2022-08-23T05:39:07.849Z,22.44
2022-08-23T05:40:07.515Z,22.44
2022-08-23T05:41:07.218Z,22.42
2022-08-23T05:42:07.405Z,22.42
2022-08-23T05:43:07.246Z,22.42
2022-08-23T05:44:07.445Z,22.43
2022-08-23T05:45:07.553Z,22.43
2022-08-23T05:46:07.034Z,22.44
2022-08-23T05:47:10.534Z,22.43
2022-08-23T05:48:07.511Z,22.43
2022-08-23T05:49:07.592Z,22.44
2022-08-23T05:50:07.643Z,22.40
2022-08-23T05:51:07.159Z,22.43
2022-08-23T05:52:07.568Z,22.43
2022-08-23T05:53:07.015Z,22.43
2022-08-23T05:54:07.403Z,22.40
2022-08-23T05:55:07.824Z,22.43
2022-08-23T05:56:07.296Z,22.43
2022-08-23T05:57:07.667Z,22.45
2022-08-23T05:58:07.116Z,22.45
2022-08-23T05:59:07.605Z,22.45
2022-08-23T06:00:08.612Z,22.47
2022-08-23T06:01:07.344Z,22.48
2022-08-23T06:02:07.688Z,22.50
2022-08-23T06:03:07.111Z,22.52
2022-08-23T06:04:07.508Z,22.52
2022-08-23T06:05:07.971Z,22.55
2022-08-23T06:06:07.109Z,22.61
2022-08-23T06:07:07.214Z,22.65
2022-08-23T06:08:07.446Z,22.72
2022-08-23T06:09:07.524Z,22.79
2022-08-23T06:10:06.783Z,22.87
2022-08-23T06:11:07.157Z,22.94
2022-08-23T06:12:07.173Z,23.02
2022-08-23T06:13:07.254Z,23.10
2022-08-23T06:14:07.632Z,23.21
2022-08-23T06:15:07.139Z,23.30
2022-08-23T06:16:14.753Z,23.38
2022-08-23T06:17:07.715Z,23.46
2022-08-23T06:18:07.027Z,23.52
2022-08-23T06:19:07.189Z,23.59
2022-08-23T06:20:07.699Z,23.64
2022-08-23T06:21:07.210Z,23.70
2022-08-23T06:22:07.365Z,23.75
2022-08-23T06:23:07.683Z,23.81
2022-08-23T06:24:07.302Z,23.91
2022-08-23T06:25:09.718Z,24.01
2022-08-23T06:26:07.075Z,24.10
2022-08-23T06:27:07.288Z,24.19
2022-08-23T06:28:07.727Z,24.27
2022-08-23T06:29:07.733Z,24.37
2022-08-23T06:30:07.486Z,24.46
2022-08-23T06:31:07.694Z,24.53
2022-08-23T06:32:07.359Z,24.64
2022-08-23T06:33:07.066Z,24.76
2022-08-23T06:34:07.595Z,24.86
2022-08-23T06:35:36.824Z,24.95
2022-08-23T06:36:07.135Z,25.05
2022-08-23T06:37:07.436Z,25.13
2022-08-23T06:38:07.600Z,25.22
2022-08-23T06:39:07.734Z,25.29
2022-08-23T06:40:07.002Z,25.39
2022-08-23T06:41:07.271Z,25.45
2022-08-23T06:42:22.203Z,25.52
2022-08-23T06:43:07.195Z,25.62
2022-08-23T06:44:07.392Z,25.68
2022-08-23T06:45:07.739Z,25.73
2022-08-23T06:46:06.934Z,25.78
2022-08-23T06:47:07.601Z,25.85
2022-08-23T06:48:06.925Z,25.89
2022-08-23T06:49:07.060Z,25.97
2022-08-23T06:50:07.460Z,26.03
2022-08-23T06:51:07.226Z,26.06
2022-08-23T06:52:07.368Z,26.12
2022-08-23T06:53:10.029Z,26.17
2022-08-23T06:54:07.601Z,26.23
2022-08-23T06:55:11.754Z,26.30
2022-08-23T06:56:07.079Z,26.35
2022-08-23T06:57:07.191Z,26.42
2022-08-23T06:58:07.372Z,26.46
2022-08-23T06:59:07.608Z,26.52
2022-08-23T07:00:07.575Z,26.57
2022-08-23T07:01:14.639Z,26.63
2022-08-23T07:02:07.191Z,26.69
2022-08-23T07:03:07.779Z,26.72
2022-08-23T07:04:07.249Z,26.76
2022-08-23T07:05:07.927Z,26.79
2022-08-23T07:06:07.221Z,26.78
2022-08-23T07:07:11.395Z,26.77
2022-08-23T07:08:07.231Z,26.74
2022-08-23T07:09:07.500Z,26.70
2022-08-23T07:10:07.128Z,26.68
2022-08-23T07:11:07.341Z,26.62
2022-08-23T07:12:07.855Z,26.60
2022-08-23T07:13:07.204Z,26.58
2022-08-23T07:14:07.526Z,26.52
2022-08-23T07:15:07.443Z,26.45
2022-08-23T07:16:07.909Z,26.43
2022-08-23T07:17:07.504Z,26.38
2022-08-23T07:18:07.728Z,26.37
2022-08-23T07:19:07.096Z,26.34
2022-08-23T07:20:07.701Z,26.33
2022-08-23T07:21:07.228Z,26.29
2022-08-23T07:22:07.520Z,26.31
2022-08-23T07:23:06.944Z,26.34
2022-08-23T07:24:07.349Z,26.37
2022-08-23T07:25:07.673Z,26.36
2022-08-23T07:26:07.047Z,26.40
2022-08-23T07:27:07.370Z,26.41
2022-08-23T07:28:11.510Z,26.42
2022-08-23T07:29:07.044Z,26.47
2022-08-23T07:30:07.369Z,26.53
2022-08-23T07:31:12.341Z,26.57
2022-08-23T07:32:07.669Z,26.65
2022-08-23T07:33:07.387Z,26.69
2022-08-23T07:34:07.449Z,26.77
2022-08-23T07:35:07.677Z,26.81
2022-08-23T07:36:07.242Z,26.84
2022-08-23T07:37:11.271Z,26.86
2022-08-23T07:38:06.904Z,26.90
2022-08-23T07:39:07.167Z,26.95
2022-08-23T07:40:07.499Z,27.02
2022-08-23T07:41:06.943Z,27.08
2022-08-23T07:42:23.174Z,27.12
2022-08-23T07:43:07.496Z,27.18
2022-08-23T07:44:06.956Z,27.22
2022-08-23T07:45:09.956Z,27.27
2022-08-23T07:46:07.035Z,27.34
2022-08-23T07:47:07.486Z,27.40
2022-08-23T07:48:07.778Z,27.44
2022-08-23T07:49:07.696Z,27.46
2022-08-23T07:50:07.141Z,27.52
2022-08-23T07:51:07.263Z,27.54
2022-08-23T07:52:07.742Z,27.57
2022-08-23T07:53:07.021Z,27.62
2022-08-23T07:54:07.321Z,27.68
2022-08-23T07:55:07.697Z,27.72
2022-08-23T07:56:07.013Z,27.79
2022-08-23T07:57:07.895Z,27.83
2022-08-23T07:58:07.026Z,27.87
2022-08-23T07:59:07.449Z,27.94
2022-08-23T08:00:09.277Z,27.96
2022-08-23T08:01:06.917Z,27.98
2022-08-23T08:02:07.435Z,28.02
2022-08-23T08:03:07.244Z,28.06
2022-08-23T08:04:07.324Z,28.11
2022-08-23T08:05:07.581Z,28.17
2022-08-23T08:06:07.115Z,28.21
2022-08-23T08:07:19.373Z,28.25
2022-08-23T08:08:07.463Z,28.26
2022-08-23T08:09:07.697Z,28.32
2022-08-23T08:10:07.007Z,28.34
2022-08-23T08:11:07.024Z,28.36
2022-08-23T08:12:07.706Z,28.39
2022-08-23T08:13:06.905Z,28.44
2022-08-23T08:14:07.016Z,28.45
2022-08-23T08:15:07.659Z,28.47
2022-08-23T08:16:06.977Z,28.50
2022-08-23T08:17:07.311Z,28.55
2022-08-23T08:18:07.348Z,28.60
2022-08-23T08:19:07.834Z,28.68
2022-08-23T08:20:26.203Z,28.69
2022-08-23T08:21:07.455Z,28.70
2022-08-23T08:22:07.609Z,28.75
2022-08-23T08:23:07.040Z,28.80
2022-08-23T08:24:07.569Z,28.85
2022-08-23T08:25:07.161Z,28.91
2022-08-23T08:26:07.479Z,28.96
2022-08-23T08:27:07.939Z,28.98
2022-08-23T08:28:09.462Z,29.02
2022-08-23T08:29:07.241Z,29.08
2022-08-23T08:30:07.714Z,29.07
2022-08-23T08:31:07.881Z,29.05
2022-08-23T08:32:07.410Z,29.05
2022-08-23T08:33:07.189Z,29.05
2022-08-23T08:34:07.476Z,29.10
2022-08-23T08:35:08.105Z,29.17
2022-08-23T08:36:07.237Z,29.21
2022-08-23T08:37:07.430Z,29.21
2022-08-23T08:38:07.999Z,29.26
2022-08-23T08:39:07.241Z,29.27
2022-08-23T08:40:08.002Z,29.29
2022-08-23T08:41:07.255Z,29.29
2022-08-23T08:42:07.196Z,29.33
2022-08-23T08:43:07.475Z,29.40
2022-08-23T08:44:07.817Z,29.42
2022-08-23T08:45:07.562Z,29.44
2022-08-23T08:46:06.912Z,29.48
2022-08-23T08:47:07.011Z,29.5
2022-08-23T08:48:11.337Z,29.54
2022-08-23T08:49:06.904Z,29.59
2022-08-23T08:50:07.369Z,29.62
2022-08-23T08:51:07.142Z,29.64
2022-08-23T08:52:07.368Z,29.65
2022-08-23T08:53:07.639Z,29.67
2022-08-23T08:54:07.037Z,29.70
2022-08-23T08:55:07.634Z,29.69
2022-08-23T08:56:08.061Z,29.76
2022-08-23T08:57:07.652Z,29.79
2022-08-23T08:58:07.174Z,29.80
2022-08-23T08:59:07.444Z,29.83
2022-08-23T09:00:08.449Z,29.88
2022-08-23T09:01:07.276Z,29.92
2022-08-23T09:02:32.032Z,29.97
2022-08-23T09:03:07.167Z,30.04
2022-08-23T09:04:07.774Z,30.07
2022-08-23T09:05:07.285Z,30.13
2022-08-23T09:06:07.985Z,30.19
2022-08-23T09:07:07.985Z,30.27
2022-08-23T09:08:07.052Z,30.36
2022-08-23T09:09:07.272Z,30.39
2022-08-23T09:10:07.885Z,30.46
2022-08-23T09:11:06.846Z,30.50
2022-08-23T09:12:07.519Z,30.54
2022-08-23T09:13:07.872Z,30.54
2022-08-23T09:14:07.066Z,30.55
2022-08-23T09:15:07.520Z,30.54
2022-08-23T09:16:07.146Z,30.52
2022-08-23T09:17:07.573Z,30.53
2022-08-23T09:18:07.653Z,30.52
2022-08-23T09:19:07.183Z,30.48
2022-08-23T09:20:07.491Z,30.44
2022-08-23T09:21:07.790Z,30.36
2022-08-23T09:22:07.441Z,30.37
2022-08-23T09:23:07.227Z,30.39
2022-08-23T09:24:07.749Z,30.40
2022-08-23T09:25:07.976Z,30.43
2022-08-23T09:26:07.536Z,30.47
2022-08-23T09:27:07.627Z,30.54
2022-08-23T09:28:07.412Z,30.54
2022-08-23T09:29:07.152Z,30.53
2022-08-23T09:30:07.785Z,30.57
2022-08-23T09:31:08.409Z,30.56
2022-08-23T09:32:07.129Z,30.56
2022-08-23T09:33:07.135Z,30.54
2022-08-23T09:34:07.393Z,30.59
2022-08-23T09:35:08.017Z,30.62
2022-08-23T09:36:08.427Z,30.69
2022-08-23T09:37:06.899Z,30.77
2022-08-23T09:38:07.123Z,30.82
2022-08-23T09:39:07.360Z,30.88
2022-08-23T09:40:07.922Z,30.94
2022-08-23T09:41:07.273Z,30.94
2022-08-23T09:42:07.575Z,30.99
2022-08-23T09:43:06.922Z,31.07
2022-08-23T09:44:06.835Z,31.05
2022-08-23T09:45:07.294Z,30.98
2022-08-23T09:46:07.168Z,30.94
2022-08-23T09:47:07.506Z,30.89
2022-08-23T09:48:07.132Z,30.88
2022-08-23T09:49:07.549Z,30.87
2022-08-23T09:50:07.829Z,30.91
2022-08-23T09:51:07.231Z,30.94
2022-08-23T09:52:07.226Z,30.95
2022-08-23T09:53:07.751Z,30.96
2022-08-23T09:54:07.604Z,30.92
2022-08-23T09:55:07.307Z,30.93
2022-08-23T09:56:07.304Z,30.95
2022-08-23T09:57:07.117Z,30.94
2022-08-23T09:58:07.641Z,30.95
2022-08-23T09:59:07.139Z,30.91
2022-08-23T10:00:08.414Z,30.92
2022-08-23T10:01:07.589Z,30.89
2022-08-23T10:02:08.241Z,30.83
2022-08-23T10:03:07.081Z,30.86
2022-08-23T10:04:07.674Z,30.86
2022-08-23T10:05:07.148Z,30.83
2022-08-23T10:06:07.158Z,30.85
2022-08-23T10:07:07.738Z,30.90
2022-08-23T10:08:10.462Z,30.95
2022-08-23T10:09:07.330Z,30.97
2022-08-23T10:10:06.971Z,30.97
2022-08-23T10:11:07.033Z,30.94
2022-08-23T10:12:07.580Z,30.93
2022-08-23T10:13:07.222Z,30.92
2022-08-23T10:14:07.055Z,30.95
2022-08-23T10:15:07.776Z,30.98
2022-08-23T10:16:07.428Z,31.03
2022-08-23T10:17:15.197Z,31.11
2022-08-23T10:18:07.355Z,31.15
2022-08-23T10:19:07.500Z,31.22
2022-08-23T10:20:07.827Z,31.28
2022-08-23T10:21:07.564Z,31.34
2022-08-23T10:22:07.200Z,31.42
2022-08-23T10:23:07.669Z,31.48
2022-08-23T10:24:07.955Z,31.50
2022-08-23T10:25:07.421Z,31.56
2022-08-23T10:26:07.672Z,31.60
2022-08-23T10:27:07.011Z,31.66
2022-08-23T10:28:07.424Z,31.71
2022-08-23T10:29:07.781Z,31.78
2022-08-23T10:30:07.665Z,31.87
2022-08-23T10:31:07.240Z,31.92
2022-08-23T10:32:07.689Z,31.96
2022-08-23T10:33:07.187Z,32.02
2022-08-23T10:34:07.330Z,32.05
2022-08-23T10:35:07.730Z,32.06
2022-08-23T10:36:07.463Z,32.08
2022-08-23T10:37:07.118Z,32.11
2022-08-23T10:38:07.415Z,32.17
2022-08-23T10:39:07.675Z,32.22
2022-08-23T10:40:07.510Z,32.27
2022-08-23T10:41:07.157Z,32.22
2022-08-23T10:42:07.430Z,32.14
2022-08-23T10:43:07.627Z,32.06
2022-08-23T10:44:06.977Z,31.97
2022-08-23T10:45:07.716Z,31.96
2022-08-23T10:46:07.330Z,31.97
2022-08-23T10:47:06.890Z,31.97
2022-08-23T10:48:07.009Z,32.00
2022-08-23T10:49:07.170Z,32.04
2022-08-23T10:50:07.418Z,32.08
2022-08-23T10:51:07.696Z,32.14
2022-08-23T10:52:07.474Z,32.14
2022-08-23T10:53:06.928Z,32.17
2022-08-23T10:54:07.203Z,32.22
2022-08-23T10:55:07.591Z,32.26
2022-08-23T10:56:07.078Z,32.34
2022-08-23T10:57:07.374Z,32.38
2022-08-23T10:58:07.660Z,32.44
2022-08-23T10:59:06.954Z,32.45
2022-08-23T11:00:08.324Z,32.5
2022-08-23T11:01:07.265Z,32.54
2022-08-23T11:02:07.640Z,32.61
2022-08-23T11:03:06.999Z,32.69
2022-08-23T11:04:07.494Z,32.77
2022-08-23T11:05:07.790Z,32.83
2022-08-23T11:06:07.622Z,32.88
2022-08-23T11:07:07.196Z,32.93
2022-08-23T11:08:07.556Z,32.93
2022-08-23T11:09:07.642Z,32.86
2022-08-23T11:10:07.516Z,32.81
2022-08-23T11:11:07.056Z,32.80
2022-08-23T11:12:10.961Z,32.84
2022-08-23T11:13:07.291Z,32.88
2022-08-23T11:14:07.481Z,32.93
2022-08-23T11:15:08.302Z,32.99
2022-08-23T11:16:08.142Z,33.05
2022-08-23T11:17:08.260Z,33.11
2022-08-23T11:18:07.659Z,33.15
2022-08-23T11:19:07.264Z,33.20
2022-08-23T11:20:07.806Z,33.22
2022-08-23T11:21:07.170Z,33.27
2022-08-23T11:22:07.625Z,33.31
2022-08-23T11:23:07.152Z,33.35
2022-08-23T11:24:07.566Z,33.41
2022-08-23T11:25:08.785Z,33.45
2022-08-23T11:26:07.011Z,33.50
2022-08-23T11:27:07.605Z,33.56
2022-08-23T11:28:07.228Z,33.57
2022-08-23T11:29:07.437Z,33.63
2022-08-23T11:30:07.923Z,33.70
2022-08-23T11:31:07.495Z,33.73
2022-08-23T11:32:07.604Z,33.78
2022-08-23T11:33:07.642Z,33.84
2022-08-23T11:34:07.678Z,33.89
2022-08-23T11:35:07.248Z,33.94
2022-08-23T11:36:07.934Z,34.02
2022-08-23T11:37:07.345Z,34.06
2022-08-23T11:38:07.570Z,34.09
2022-08-23T11:39:07.021Z,34.11
2022-08-23T11:40:07.493Z,34.15
2022-08-23T11:41:06.922Z,34.17
2022-08-23T11:42:07.296Z,34.22
2022-08-23T11:43:07.530Z,34.26
2022-08-23T11:44:07.025Z,34.29
2022-08-23T11:45:07.639Z,34.32
2022-08-23T11:46:07.283Z,34.32
2022-08-23T11:47:07.736Z,34.36
2022-08-23T11:48:07.520Z,34.40
2022-08-23T11:49:07.574Z,34.44
2022-08-23T11:50:07.364Z,34.48
2022-08-23T11:51:07.175Z,34.50
2022-08-23T11:52:07.624Z,34.54
2022-08-23T11:53:07.431Z,34.58
2022-08-23T11:54:07.599Z,34.59
2022-08-23T11:55:07.796Z,34.61
2022-08-23T11:56:08.028Z,34.63
2022-08-23T11:57:07.657Z,34.64
2022-08-23T11:58:07.942Z,34.66
2022-08-23T11:59:08.727Z,34.68
2022-08-23T12:00:08.299Z,34.75
2022-08-23T12:01:07.691Z,34.77
2022-08-23T12:02:07.277Z,34.82
2022-08-23T12:03:07.596Z,34.87
2022-08-23T12:04:07.670Z,34.91
2022-08-23T12:05:07.614Z,34.95
2022-08-23T12:06:07.756Z,34.95
2022-08-23T12:07:07.358Z,34.95
2022-08-23T12:08:07.600Z,34.95
2022-08-23T12:09:07.043Z,34.95
2022-08-23T12:10:07.685Z,34.95
2022-08-23T12:11:07.306Z,34.93
2022-08-23T12:12:07.508Z,34.93
2022-08-23T12:13:06.983Z,34.93
2022-08-23T12:14:07.517Z,34.95
2022-08-23T12:15:07.376Z,34.89
2022-08-23T12:16:07.126Z,34.84
2022-08-23T12:17:07.227Z,34.76
2022-08-23T12:18:07.240Z,34.72
2022-08-23T12:19:07.947Z,34.72
2022-08-23T12:20:06.978Z,34.74
2022-08-23T12:21:07.129Z,34.73
2022-08-23T12:22:07.588Z,34.72
2022-08-23T12:23:07.250Z,34.70
2022-08-23T12:24:07.755Z,34.69
2022-08-23T12:25:07.350Z,34.70
2022-08-23T12:26:07.557Z,34.70
2022-08-23T12:27:07.348Z,34.72
2022-08-23T12:28:07.988Z,34.74
2022-08-23T12:29:07.617Z,34.79
2022-08-23T12:30:07.679Z,34.91
2022-08-23T12:31:13.060Z,34.99
2022-08-23T12:32:07.769Z,34.91
2022-08-23T12:33:07.097Z,34.82
2022-08-23T12:34:07.364Z,34.76
2022-08-23T12:35:08.022Z,34.74
2022-08-23T12:36:07.619Z,34.75
2022-08-23T12:37:09.587Z,34.79
2022-08-23T12:38:07.052Z,34.84
2022-08-23T12:39:07.563Z,34.86
2022-08-23T12:40:07.956Z,34.88
2022-08-23T12:41:07.479Z,34.91
2022-08-23T12:42:07.255Z,34.95
2022-08-23T12:43:07.613Z,35.02
2022-08-23T12:44:07.604Z,35.08
2022-08-23T12:45:08.459Z,35.13
2022-08-23T12:46:07.027Z,35.22
2022-08-23T12:47:08.422Z,35.30
2022-08-23T12:48:07.238Z,35.37
2022-08-23T12:49:07.933Z,35.47
2022-08-23T12:50:07.624Z,35.56
2022-08-23T12:51:07.122Z,35.62
2022-08-23T12:52:07.576Z,35.74
2022-08-23T12:53:07.292Z,35.83
2022-08-23T12:54:07.794Z,35.94